Bolu, Turkey
Current Conditions -  °F | °C
As of 6:50 PM on Friday 19 Dec 2014 (Local Time) from LTBQ Reporting Station
Scattered Clouds Scattered Clouds  
Wind Chill: 39°   Ceiling: Unl
Heat Index: 39°   Visibility: 4mi
Dew Point: 39°   Wind: 2mph
Humidity: 100%   Direction: NA
Pressure: 30.21"   Gusts: NA
Location:  40.75°N, 31.61°E
Report Text: LTBQ 191550Z VRB02KT 6000 SCT030 04/04 Q1023 NOSIG
Loading
Personal Weather Stations






























Interactive Weather Map New forecast layout! Learn more

10-Day Weather Forecast

Advertisements
Track Severe Weather on mobile